createdAt,value
2023-01-25T00:04:48.554Z,16.80
2023-01-25T00:09:50.565Z,16.30
2023-01-25T00:14:51.250Z,16.45
2023-01-25T00:19:51.894Z,16.52
2023-01-25T00:24:54.908Z,16.45
2023-01-25T00:29:55.566Z,15.50
2023-01-25T00:34:56.658Z,14.05
2023-01-25T00:39:58.786Z,15.10
2023-01-25T00:44:59.421Z,14.52
2023-01-25T00:50:00.133Z,14.02
2023-01-25T00:55:02.152Z,13.63
2023-01-25T01:00:02.824Z,15.25
2023-01-25T01:05:03.571Z,13.13
2023-01-25T01:10:08.902Z,13.88
2023-01-25T01:15:10.686Z,13.85
2023-01-25T01:20:12.443Z,13.18
2023-01-25T01:25:14.696Z,13.55
2023-01-25T01:30:15.540Z,12.93
2023-01-25T01:35:16.417Z,12.63
2023-01-25T01:40:18.799Z,14.18
2023-01-25T01:45:52.079Z,13.10
2023-01-25T01:51:02.781Z,14.20
2023-01-25T01:56:09.577Z,14.65
2023-01-25T02:01:10.481Z,15.88
2023-01-25T02:06:15.696Z,14.40
2023-01-25T02:11:18.075Z,12.13
2023-01-25T02:16:29.507Z,13.35
2023-01-25T02:21:38.749Z,12.07
2023-01-25T02:26:41.459Z,12.63
2023-01-25T02:31:45.646Z,13.15
2023-01-25T02:36:46.577Z,13.45
2023-01-25T02:41:49.132Z,13.18
2023-01-25T02:46:50.331Z,13.82
2023-01-25T02:51:55.828Z,14.35
2023-01-25T02:56:58.460Z,14.85
2023-01-25T03:02:02.814Z,15.70
2023-01-25T03:07:04.983Z,13.02
2023-01-25T03:12:07.739Z,13.93
2023-01-25T03:17:08.583Z,14.82
2023-01-25T03:22:11.082Z,15.45
2023-01-25T03:27:14.273Z,14.95
2023-01-25T03:32:18.521Z,13.77
2023-01-25T03:37:19.513Z,15.00
2023-01-25T03:42:23.618Z,14.00
2023-01-25T03:47:29.240Z,12.45
2023-01-25T03:52:37.301Z,15.05
2023-01-25T03:57:39.696Z,14.35
2023-01-25T04:02:43.376Z,16.25
2023-01-25T04:07:47.978Z,14.50
2023-01-25T04:12:53.965Z,13.82
2023-01-25T04:17:56.245Z,12.80
2023-01-25T04:22:58.070Z,14.63
2023-01-25T04:28:07.016Z,13.50
2023-01-25T04:33:08.078Z,12.63
2023-01-25T04:38:08.876Z,12.32
2023-01-25T04:43:15.767Z,13.95
2023-01-25T04:48:17.888Z,13.57
2023-01-25T04:53:24.268Z,13.82
2023-01-25T04:58:27.222Z,13.40
2023-01-25T05:03:28.240Z,13.02
2023-01-25T05:08:29.073Z,12.75
2023-01-25T05:13:35.583Z,13.35
2023-01-25T05:19:02.379Z,13.10
2023-01-25T05:24:10.950Z,12.63
2023-01-25T05:29:14.057Z,12.82
2023-01-25T05:34:23.605Z,13.27
2023-01-25T05:39:24.911Z,12.77
2023-01-25T05:44:28.572Z,12.18
2023-01-25T05:49:29.311Z,12.52
2023-01-25T05:54:30.387Z,13.32
2023-01-25T05:59:38.887Z,14.68
2023-01-25T06:04:42.494Z,13.65
2023-01-25T06:09:44.248Z,14.85
2023-01-25T06:14:47.304Z,13.52
2023-01-25T06:19:47.977Z,11.20
2023-01-25T06:25:09.911Z,13.00
2023-01-25T06:30:12.869Z,12.57
2023-01-25T06:35:13.539Z,12.02
2023-01-25T06:40:14.565Z,12.98
2023-01-25T06:45:16.743Z,11.35
2023-01-25T06:50:17.506Z,11.40
2023-01-25T06:55:18.204Z,12.55
2023-01-25T07:00:20.930Z,13.20
2023-01-25T07:05:21.609Z,13.50
2023-01-25T07:10:22.354Z,11.95
2023-01-25T07:15:24.684Z,12.23
2023-01-25T07:20:25.379Z,11.57
2023-01-25T07:25:26.043Z,12.32
2023-01-25T07:30:28.091Z,12.32
2023-01-25T07:35:28.795Z,11.65
2023-01-25T07:40:29.569Z,11.80
2023-01-25T07:45:32.076Z,11.85
2023-01-25T07:50:32.804Z,11.23
2023-01-25T07:55:33.548Z,11.38
2023-01-25T08:00:35.752Z,11.52
2023-01-25T08:05:37.197Z,12.77
2023-01-25T08:10:39.266Z,12.27
2023-01-25T08:15:41.268Z,13.25
2023-01-25T08:20:41.929Z,13.38
2023-01-25T08:25:42.619Z,11.25
2023-01-25T08:30:56.479Z,13.00
2023-01-25T08:35:58.283Z,12.45
2023-01-25T08:41:06.010Z,13.38
2023-01-25T08:46:08.115Z,13.35
2023-01-25T08:51:10.041Z,12.43
2023-01-25T08:56:12.235Z,12.30
2023-01-25T09:01:16.586Z,12.60
2023-01-25T09:06:18.461Z,13.38
2023-01-25T09:11:21.345Z,11.95
2023-01-25T09:16:29.034Z,13.07
2023-01-25T09:21:30.690Z,12.95
2023-01-25T09:26:31.560Z,14.10
2023-01-25T09:31:34.586Z,14.30
2023-01-25T09:36:44.142Z,14.23
2023-01-25T09:42:14.572Z,15.32
2023-01-25T09:47:25.610Z,14.88
2023-01-25T09:52:50.838Z,14.43
2023-01-25T09:57:55.410Z,15.80
2023-01-25T10:03:01.665Z,14.75
2023-01-25T10:08:07.147Z,16.30
2023-01-25T10:13:12.496Z,14.75
2023-01-25T10:18:22.602Z,13.75
2023-01-25T10:23:42.122Z,13.93
2023-01-25T10:28:48.494Z,14.95
2023-01-25T10:33:50.592Z,14.15
2023-01-25T10:38:57.438Z,13.20
2023-01-25T10:44:12.593Z,14.25
2023-01-25T10:49:23.870Z,14.90
2023-01-25T10:54:25.207Z,13.38
2023-01-25T10:59:28.264Z,12.95
2023-01-25T11:04:35.956Z,12.63
2023-01-25T11:09:39.063Z,12.10
2023-01-25T11:14:39.772Z,13.13
2023-01-25T11:19:42.188Z,12.27
2023-01-25T11:24:42.990Z,12.82
2023-01-25T11:29:47.033Z,12.77
2023-01-25T11:34:50.143Z,12.35
2023-01-25T11:40:00.291Z,11.00
2023-01-25T11:45:36.970Z,10.35
2023-01-25T11:50:45.245Z,10.52
2023-01-25T11:55:53.898Z,10.27
2023-01-25T12:01:08.303Z,10.40
2023-01-25T12:06:17.431Z,9.65
2023-01-25T12:11:29.967Z,9.27
2023-01-25T12:16:44.710Z,10.60
2023-01-25T12:22:07.515Z,9.27
2023-01-25T12:27:20.445Z,9.82
2023-01-25T12:32:25.432Z,10.15
2023-01-25T12:37:33.835Z,10.63
2023-01-25T12:42:39.983Z,11.40
2023-01-25T12:47:45.187Z,10.43
2023-01-25T12:52:52.296Z,9.60
2023-01-25T12:58:00.987Z,9.88
2023-01-25T13:03:12.531Z,11.65
2023-01-25T13:08:31.634Z,10.98
2023-01-25T13:13:33.328Z,9.02
2023-01-25T13:18:41.477Z,8.95
2023-01-25T13:23:47.283Z,11.13
2023-01-25T13:28:49.367Z,9.23
2023-01-25T13:33:50.042Z,9.57
2023-01-25T13:38:52.119Z,8.35
2023-01-25T13:44:14.475Z,10.52
2023-01-25T13:49:23.793Z,10.73
2023-01-25T13:54:25.832Z,9.77
2023-01-25T13:59:28.592Z,9.40
2023-01-25T14:04:30.500Z,9.70
2023-01-25T14:09:32.522Z,9.93
2023-01-25T14:14:34.743Z,9.77
2023-01-25T14:19:38.363Z,9.93
2023-01-25T14:24:40.914Z,10.40
2023-01-25T14:29:42.387Z,11.10
2023-01-25T14:34:43.137Z,10.70
2023-01-25T14:39:46.603Z,10.27
2023-01-25T14:44:48.009Z,10.20
2023-01-25T14:49:48.675Z,10.15
2023-01-25T14:54:54.703Z,10.88
2023-01-25T14:59:57.040Z,11.55
2023-01-25T15:05:04.882Z,12.32
2023-01-25T15:10:22.953Z,13.20
2023-01-25T15:15:24.944Z,11.73
2023-01-25T15:20:37.422Z,11.85
2023-01-25T15:25:51.711Z,12.15
2023-01-25T15:30:53.195Z,13.80
2023-01-25T15:35:55.614Z,12.60
2023-01-25T15:41:01.376Z,13.52
2023-01-25T15:46:02.367Z,13.30
2023-01-25T15:51:03.143Z,13.18
2023-01-25T15:56:07.917Z,14.52
2023-01-25T16:01:09.247Z,12.80
2023-01-25T16:06:26.095Z,14.10
2023-01-25T16:11:28.819Z,14.48
2023-01-25T16:16:29.595Z,13.75
2023-01-25T16:21:30.943Z,14.95
2023-01-25T16:26:33.322Z,15.32
2023-01-25T16:31:34.272Z,16.45
2023-01-25T16:36:35.634Z,16.08
2023-01-25T16:41:38.057Z,14.80
2023-01-25T16:46:39.772Z,14.57
2023-01-25T16:51:41.061Z,15.07
2023-01-25T16:56:43.254Z,16.75
2023-01-25T17:01:44.435Z,16.83
2023-01-25T17:06:46.892Z,16.02
2023-01-25T17:11:48.953Z,17.70
2023-01-25T17:16:51.620Z,18.42
2023-01-25T17:21:52.625Z,17.63
2023-01-25T17:26:57.247Z,17.42
2023-01-25T17:31:58.086Z,17.60
2023-01-25T17:36:58.838Z,18.48
2023-01-25T17:42:00.831Z,17.38
2023-01-25T17:47:01.747Z,16.65
2023-01-25T17:52:02.864Z,19.30
2023-01-25T17:57:04.890Z,18.60
2023-01-25T18:02:06.484Z,16.88
2023-01-25T18:07:07.120Z,17.65
2023-01-25T18:12:09.265Z,18.95
2023-01-25T18:17:10.200Z,18.90
2023-01-25T18:22:10.926Z,16.83
2023-01-25T18:27:20.691Z,20.63
2023-01-25T18:32:21.562Z,17.35
2023-01-25T18:37:24.156Z,18.33
2023-01-25T18:42:27.299Z,14.65
2023-01-25T18:47:28.021Z,17.45
2023-01-25T18:52:28.719Z,17.15
2023-01-25T18:57:30.776Z,18.25
2023-01-25T19:02:31.579Z,19.17
2023-01-25T19:07:33.274Z,18.52
2023-01-25T19:12:35.380Z,17.38
2023-01-25T19:17:36.125Z,19.55
2023-01-25T19:22:36.831Z,19.60
2023-01-25T19:27:38.897Z,20.85
2023-01-25T19:32:39.625Z,18.90
2023-01-25T19:37:40.262Z,19.13
2023-01-25T19:42:42.273Z,18.75
2023-01-25T19:47:42.964Z,16.40
2023-01-25T19:52:43.972Z,15.25
2023-01-25T19:57:47.363Z,16.17
2023-01-25T20:02:48.092Z,14.10
2023-01-25T20:07:49.050Z,16.33
2023-01-25T20:12:51.253Z,16.48
2023-01-25T20:17:51.980Z,18.77
2023-01-25T20:22:54.283Z,20.88
2023-01-25T20:27:56.334Z,22.38
2023-01-25T20:32:56.979Z,21.05
2023-01-25T20:37:57.641Z,21.45
2023-01-25T20:42:59.663Z,21.20
2023-01-25T20:48:00.421Z,20.88
2023-01-25T20:53:01.107Z,21.48
2023-01-25T20:58:03.159Z,21.67
2023-01-25T21:03:03.896Z,21.85
2023-01-25T21:08:05.094Z,19.45
2023-01-25T21:13:07.398Z,20.48
2023-01-25T21:18:08.093Z,20.15
2023-01-25T21:23:08.786Z,21.88
2023-01-25T21:28:10.836Z,24.25
2023-01-25T21:33:11.501Z,24.27
2023-01-25T21:38:12.221Z,22.55
2023-01-25T21:43:14.349Z,26.17
2023-01-25T21:48:35.100Z,25.77
2023-01-25T21:53:35.758Z,25.17
2023-01-25T21:58:37.774Z,25.83
2023-01-25T22:03:38.481Z,26.08
2023-01-25T22:08:40.658Z,25.60
2023-01-25T22:13:42.935Z,25.77
2023-01-25T22:18:44.574Z,26.50
2023-01-25T22:23:46.006Z,24.48
2023-01-25T22:28:50.390Z,26.38
2023-01-25T22:33:52.378Z,26.05
2023-01-25T22:38:53.506Z,27.45
2023-01-25T22:43:56.014Z,26.23
2023-01-25T22:48:56.845Z,25.77
2023-01-25T22:53:59.200Z,27.45
2023-01-25T22:59:02.056Z,29.48
2023-01-25T23:04:03.420Z,28.30
2023-01-25T23:09:07.137Z,27.77
2023-01-25T23:14:41.492Z,28.38
2023-01-25T23:19:42.522Z,27.67
2023-01-25T23:24:43.287Z,26.58
2023-01-25T23:29:45.314Z,27.48
2023-01-25T23:34:46.008Z,27.08
2023-01-25T23:39:46.689Z,26.95
2023-01-25T23:44:48.700Z,25.90
2023-01-25T23:49:49.404Z,28.52
2023-01-25T23:54:50.158Z,27.13
2023-01-25T23:59:52.187Z,25.10
